Terminal Aerodrome Forecast
Issued by NWS Cleveland, OH

Home | Current Version | Previous Version | Text Only | Print | Product List | Glossary Off
Versions: 1 2 3 4 5 6 7 8 9 10 11 12 13 14 15 16 17 18

974
FTUS41 KCLE 151724
TAFTOL
TAF
KTOL 151724Z 1518/1618 32005KT P6SM SCT040
     FM160100 VRB02KT P6SM SCT250
     FM160800 06004KT 4SM BR SCT045
     FM161400 08006KT P6SM SCT250
     FM161700 09006KT P6SM SCT040=

USA.gov is the U.S. government's official web portal to all federal, state and local government web resources and services.